createdAt,value
2019-04-10T00:02:26.259Z,41.40
2019-04-10T00:04:55.866Z,39.30
2019-04-10T00:07:25.721Z,39.80
2019-04-10T00:09:55.378Z,41.77
2019-04-10T00:12:25.453Z,38.98
2019-04-10T00:14:55.213Z,37.93
2019-04-10T00:17:25.021Z,38.20
2019-04-10T00:19:54.644Z,41.65
2019-04-10T00:22:24.344Z,38.88
2019-04-10T00:24:54.581Z,37.60
2019-04-10T00:27:24.104Z,38.30
2019-04-10T00:29:54.399Z,36.65
2019-04-10T00:32:24.263Z,38.02
2019-04-10T00:34:54.064Z,38.25
2019-04-10T00:37:28.498Z,37.45
2019-04-10T00:39:55.110Z,36.50
2019-04-10T00:42:27.425Z,37.55
2019-04-10T00:44:57.262Z,38.88
2019-04-10T00:47:27.078Z,38.13
2019-04-10T00:49:56.611Z,36.83
2019-04-10T00:52:26.287Z,34.05
2019-04-10T00:54:55.813Z,33.80
2019-04-10T00:57:25.518Z,35.23
2019-04-10T00:59:55.026Z,37.75
2019-04-10T01:02:26.862Z,37.70
2019-04-10T01:04:56.518Z,38.17
2019-04-10T01:07:35.949Z,36.25
2019-04-10T01:09:57.621Z,35.98
2019-04-10T01:12:27.979Z,36.90
2019-04-10T01:14:58.197Z,36.98
2019-04-10T01:17:28.542Z,37.08
2019-04-10T01:19:58.587Z,37.10
2019-04-10T01:22:28.335Z,33.75
2019-04-10T01:24:57.870Z,34.78
2019-04-10T01:27:27.809Z,37.85
2019-04-10T01:29:57.958Z,39.65
2019-04-10T01:32:29.950Z,35.88
2019-04-10T01:35:00.226Z,39.13
2019-04-10T01:37:29.846Z,42.38
2019-04-10T01:39:59.382Z,41.15
2019-04-10T01:42:28.914Z,40.85
2019-04-10T01:45:01.328Z,41.42
2019-04-10T01:47:31.048Z,40.70
2019-04-10T01:50:00.779Z,43.63
2019-04-10T01:52:31.136Z,45.58
2019-04-10T01:55:03.179Z,43.58
2019-04-10T01:57:32.505Z,43.20
2019-04-10T02:00:02.745Z,43.42
2019-04-10T02:02:34.018Z,43.60
2019-04-10T02:05:04.119Z,47.60
2019-04-10T02:07:34.070Z,43.58
2019-04-10T02:10:05.908Z,41.33
2019-04-10T02:12:35.526Z,47.23
2019-04-10T02:15:07.096Z,51.68
2019-04-10T02:17:38.904Z,47.33
2019-04-10T02:20:10.531Z,47.25
2019-04-10T02:22:40.538Z,45.10
2019-04-10T02:25:11.806Z,47.67
2019-04-10T02:27:42.554Z,63.90
2019-04-10T02:30:16.365Z,56.18
2019-04-10T02:32:47.742Z,54.65
2019-04-10T02:35:18.926Z,53.42
2019-04-10T02:37:52.393Z,50.38
2019-04-10T02:40:19.427Z,49.83
2019-04-10T02:42:51.858Z,54.77
2019-04-10T02:45:21.949Z,53.70
2019-04-10T02:47:52.827Z,58.08
2019-04-10T02:50:22.823Z,57.90
2019-04-10T02:52:52.450Z,58.45
2019-04-10T02:55:23.037Z,55.30
2019-04-10T02:57:54.217Z,56.35
2019-04-10T03:00:25.048Z,57.23
2019-04-10T03:02:57.151Z,54.18
2019-04-10T03:05:27.486Z,63.98
2019-04-10T03:07:58.226Z,65.10
2019-04-10T03:10:38.293Z,55.55
2019-04-10T03:13:00.675Z,60.05
2019-04-10T03:15:31.504Z,63.25
2019-04-10T03:18:01.877Z,62.67
2019-04-10T03:20:32.164Z,59.90
2019-04-10T03:23:02.040Z,68.30
2019-04-10T03:25:31.601Z,60.75
2019-04-10T03:28:01.208Z,62.55
2019-04-10T03:30:32.406Z,59.08
2019-04-10T03:33:26.107Z,63.20
2019-04-10T03:35:53.201Z,64.50
2019-04-10T03:38:23.713Z,64.00
2019-04-10T03:40:53.788Z,64.67
2019-04-10T03:43:23.390Z,62.58
2019-04-10T03:45:53.013Z,62.62
2019-04-10T03:48:23.041Z,60.17
2019-04-10T03:50:52.802Z,60.67
2019-04-10T03:53:23.251Z,59.70
2019-04-10T03:55:53.695Z,63.07
2019-04-10T03:58:23.273Z,60.50
2019-04-10T04:00:52.841Z,63.73
2019-04-10T04:03:22.594Z,64.80
2019-04-10T04:05:53.117Z,64.80
2019-04-10T04:08:23.557Z,63.55
2019-04-10T04:10:53.323Z,74.90
2019-04-10T04:13:23.687Z,71.85
2019-04-10T04:15:53.443Z,70.17
2019-04-10T04:18:22.980Z,75.95
2019-04-10T04:20:52.998Z,75.52
2019-04-10T04:23:22.613Z,61.88
2019-04-10T04:25:52.237Z,61.25
2019-04-10T04:28:21.828Z,62.08
2019-04-10T04:30:53.309Z,66.15
2019-04-10T04:33:23.223Z,59.15
2019-04-10T04:35:53.244Z,63.75
2019-04-10T04:38:23.643Z,67.53
2019-04-10T04:40:54.786Z,63.63
2019-04-10T04:43:25.124Z,62.17
2019-04-10T04:45:55.429Z,65.50
2019-04-10T04:48:25.313Z,67.05
2019-04-10T04:50:56.666Z,61.53
2019-04-10T04:53:26.501Z,65.95
2019-04-10T04:55:56.121Z,65.80
2019-04-10T04:58:26.346Z,65.17
2019-04-10T05:00:56.466Z,60.83
2019-04-10T05:03:27.003Z,60.10
2019-04-10T05:05:56.694Z,63.42
2019-04-10T05:08:26.225Z,60.10
2019-04-10T05:10:56.072Z,58.28
2019-04-10T05:13:26.376Z,58.85
2019-04-10T05:15:55.927Z,38.40
2019-04-10T05:18:25.507Z,43.75
2019-04-10T05:20:55.039Z,35.25
2019-04-10T05:23:24.554Z,50.25
2019-04-10T05:25:54.223Z,40.70
2019-04-10T05:28:24.324Z,50.23
2019-04-10T05:30:54.681Z,42.30
2019-04-10T05:33:24.710Z,43.17
2019-04-10T05:35:55.001Z,45.08
2019-04-10T05:38:24.957Z,47.08
2019-04-10T05:40:55.193Z,59.48
2019-04-10T05:43:24.734Z,59.77
2019-04-10T05:45:55.142Z,61.98
2019-04-10T05:48:25.435Z,52.67
2019-04-10T05:51:02.302Z,59.70
2019-04-10T05:53:27.256Z,49.98
2019-04-10T05:55:57.911Z,60.48
2019-04-10T05:58:27.510Z,58.85
2019-04-10T06:00:58.900Z,62.83
2019-04-10T06:03:28.441Z,60.73
2019-04-10T06:06:00.460Z,62.88
2019-04-10T06:08:29.308Z,64.62
2019-04-10T06:10:58.857Z,65.57
2019-04-10T06:13:28.654Z,62.73
2019-04-10T06:15:59.374Z,66.53
2019-04-10T06:18:29.263Z,65.42
2019-04-10T06:20:58.972Z,65.78
2019-04-10T06:23:29.607Z,64.85
2019-04-10T06:26:00.516Z,68.22
2019-04-10T06:28:30.967Z,69.72
2019-04-10T06:31:00.962Z,69.80
2019-04-10T06:33:31.749Z,68.72
2019-04-10T06:36:02.761Z,71.72
2019-04-10T06:38:32.381Z,69.77
2019-04-10T06:41:02.207Z,67.85
2019-04-10T06:43:32.842Z,68.35
2019-04-10T06:46:02.640Z,67.50
2019-04-10T06:48:32.232Z,73.62
2019-04-10T06:51:02.144Z,70.45
2019-04-10T06:53:31.912Z,73.35
2019-04-10T06:56:02.891Z,74.77
2019-04-10T06:58:32.562Z,72.03
2019-04-10T07:01:02.265Z,74.95
2019-04-10T07:03:47.906Z,75.72
2019-04-10T07:06:12.268Z,75.78
2019-04-10T07:08:34.917Z,77.72
2019-04-10T07:11:09.051Z,73.22
2019-04-10T07:13:39.496Z,78.12
2019-04-10T07:16:09.490Z,78.07
2019-04-10T07:18:39.671Z,77.85
2019-04-10T07:21:10.615Z,72.80
2019-04-10T07:23:40.769Z,71.00
2019-04-10T07:26:10.474Z,67.27
2019-04-10T07:28:43.973Z,70.03
2019-04-10T07:31:11.672Z,73.25
2019-04-10T07:33:42.492Z,69.50
2019-04-10T07:36:14.007Z,67.75
2019-04-10T07:38:43.723Z,71.80
2019-04-10T07:41:19.425Z,68.28
2019-04-10T07:43:44.802Z,70.70
2019-04-10T07:46:15.219Z,67.97
2019-04-10T07:48:45.580Z,71.05
2019-04-10T07:51:15.304Z,67.12
2019-04-10T07:53:44.940Z,70.72
2019-04-10T07:56:17.988Z,67.03
2019-04-10T07:58:46.095Z,71.12
2019-04-10T08:01:16.194Z,69.22
2019-04-10T08:03:46.529Z,71.00
2019-04-10T08:06:16.193Z,71.77
2019-04-10T08:08:46.638Z,68.35
2019-04-10T08:11:17.505Z,70.52
2019-04-10T08:13:47.235Z,65.62
2019-04-10T08:16:17.068Z,67.05
2019-04-10T08:18:47.760Z,63.92
2019-04-10T08:21:17.729Z,64.70
2019-04-10T08:23:48.554Z,66.72
2019-04-10T08:26:18.363Z,65.42
2019-04-10T08:28:48.021Z,64.58
2019-04-10T08:31:17.713Z,65.40
2019-04-10T08:33:47.420Z,66.17
2019-04-10T08:36:17.214Z,67.82
2019-04-10T08:38:46.876Z,65.65
2019-04-10T08:41:17.186Z,63.28
2019-04-10T08:43:46.785Z,64.70
2019-04-10T08:46:17.680Z,65.40
2019-04-10T08:48:47.684Z,62.58
2019-04-10T08:51:17.421Z,61.75
2019-04-10T08:53:46.988Z,62.88
2019-04-10T08:56:16.582Z,61.83
2019-04-10T08:58:48.233Z,60.90
2019-04-10T09:01:17.577Z,61.80
2019-04-10T09:03:47.236Z,60.03
2019-04-10T09:06:17.529Z,61.42
2019-04-10T09:08:47.237Z,62.53
2019-04-10T09:11:25.575Z,60.08
2019-04-10T09:13:48.620Z,59.80
2019-04-10T09:16:18.447Z,60.55
2019-04-10T09:18:49.547Z,58.65
2019-04-10T09:21:19.460Z,59.03
2019-04-10T09:23:52.848Z,58.78
2019-04-10T09:26:20.385Z,61.50
2019-04-10T09:28:50.764Z,54.70
2019-04-10T09:31:20.446Z,57.58
2019-04-10T09:33:50.040Z,59.15
2019-04-10T09:36:19.904Z,59.25
2019-04-10T09:38:50.678Z,56.33
2019-04-10T09:41:21.621Z,58.23
2019-04-10T09:43:51.205Z,56.50
2019-04-10T09:46:20.789Z,57.27
2019-04-10T09:48:50.345Z,55.90
2019-04-10T09:51:19.859Z,56.02
2019-04-10T09:53:49.454Z,53.33
2019-04-10T09:56:19.349Z,52.38
2019-04-10T09:58:49.214Z,51.48
2019-04-10T10:01:19.949Z,53.00
2019-04-10T10:03:50.714Z,50.98
2019-04-10T10:06:27.441Z,48.48
2019-04-10T10:08:52.307Z,48.13
2019-04-10T10:11:22.229Z,48.78
2019-04-10T10:13:52.261Z,47.05
2019-04-10T10:16:23.851Z,45.98
2019-04-10T10:18:53.976Z,47.62
2019-04-10T10:21:24.096Z,44.73
2019-04-10T10:23:54.065Z,46.35
2019-04-10T10:26:24.003Z,44.50
2019-04-10T10:28:54.606Z,45.20
2019-04-10T10:31:26.259Z,45.58
2019-04-10T10:33:56.535Z,43.33
2019-04-10T10:36:36.654Z,42.78
2019-04-10T10:39:06.886Z,45.87
2019-04-10T10:41:29.780Z,45.17
2019-04-10T10:44:00.521Z,45.05
2019-04-10T10:46:31.375Z,45.58
2019-04-10T10:49:02.201Z,45.45
2019-04-10T10:51:32.788Z,43.70
2019-04-10T10:54:04.088Z,43.63
2019-04-10T10:56:34.209Z,45.97
2019-04-10T10:59:05.017Z,45.92
2019-04-10T11:01:35.841Z,51.98
2019-04-10T11:04:06.758Z,46.28
2019-04-10T11:06:49.741Z,45.98
2019-04-10T11:09:12.599Z,43.68
2019-04-10T11:11:42.257Z,43.98
2019-04-10T11:14:13.194Z,42.60
2019-04-10T11:16:42.977Z,41.48
2019-04-10T11:19:13.046Z,42.75
2019-04-10T11:21:42.986Z,39.53
2019-04-10T11:24:13.664Z,42.10
2019-04-10T11:26:44.035Z,42.23
2019-04-10T11:29:14.356Z,41.33
2019-04-10T11:31:45.784Z,43.17
2019-04-10T11:34:16.586Z,45.15
2019-04-10T11:36:46.537Z,43.35
2019-04-10T11:41:49.106Z,41.45
2019-04-10T11:44:21.261Z,42.10
2019-04-10T11:46:52.667Z,47.45
2019-04-10T11:49:22.850Z,42.17
2019-04-10T11:51:55.802Z,42.10
2019-04-10T11:54:27.812Z,39.55
2019-04-10T11:56:58.633Z,40.60
2019-04-10T11:59:28.661Z,42.33
2019-04-10T12:02:02.827Z,42.57
2019-04-10T12:04:32.412Z,42.90
2019-04-10T12:07:02.082Z,42.63
2019-04-10T12:12:03.628Z,47.58
2019-04-10T12:14:33.234Z,42.95
2019-04-10T12:17:03.322Z,41.15
2019-04-10T12:19:33.289Z,40.17
2019-04-10T12:22:03.177Z,43.73
2019-04-10T12:24:32.937Z,44.30
2019-04-10T12:27:02.612Z,52.67
2019-04-10T12:29:33.011Z,43.87
2019-04-10T12:32:02.654Z,42.53
2019-04-10T12:34:32.264Z,37.73
2019-04-10T12:37:02.854Z,40.40
2019-04-10T12:39:32.644Z,39.58
2019-04-10T12:42:02.368Z,52.88
2019-04-10T12:44:33.797Z,42.23
2019-04-10T12:47:03.753Z,51.35
2019-04-10T12:49:33.908Z,59.75
2019-04-10T12:52:03.770Z,55.15
2019-04-10T12:54:33.553Z,46.63
2019-04-10T12:57:04.257Z,39.63
2019-04-10T12:59:33.977Z,36.88
2019-04-10T13:02:04.951Z,38.95
2019-04-10T13:04:34.617Z,38.53
2019-04-10T13:07:05.340Z,37.33
2019-04-10T13:09:35.196Z,36.90
2019-04-10T13:12:04.959Z,37.93
2019-04-10T13:14:34.886Z,37.38
2019-04-10T13:17:04.771Z,37.88
2019-04-10T13:19:35.647Z,38.00
2019-04-10T13:22:05.346Z,39.83
2019-04-10T13:24:35.396Z,40.20
2019-04-10T13:27:06.194Z,38.20
2019-04-10T13:29:36.407Z,37.95
2019-04-10T13:32:07.623Z,34.38
2019-04-10T13:34:37.475Z,37.13
2019-04-10T13:37:08.260Z,35.48
2019-04-10T13:39:37.946Z,33.75
2019-04-10T13:42:07.718Z,34.18
2019-04-10T13:44:38.340Z,33.85
2019-04-10T13:47:09.048Z,34.43
2019-04-10T13:49:38.924Z,35.35
2019-04-10T13:52:08.567Z,37.50
2019-04-10T13:54:38.886Z,39.73
2019-04-10T13:57:08.515Z,40.12
2019-04-10T13:59:39.366Z,35.58
2019-04-10T14:02:11.104Z,37.00
2019-04-10T14:04:40.886Z,32.70
2019-04-10T14:07:11.547Z,32.05
2019-04-10T14:09:48.023Z,32.38
2019-04-10T14:12:12.941Z,33.88
2019-04-10T14:14:42.674Z,31.00
2019-04-10T14:17:13.124Z,35.35
2019-04-10T14:19:42.911Z,31.70
2019-04-10T14:22:13.483Z,30.32
2019-04-10T14:24:46.400Z,30.27
2019-04-10T14:27:16.346Z,29.18
2019-04-10T14:29:46.917Z,31.00
2019-04-10T14:32:18.470Z,29.60
2019-04-10T14:34:48.906Z,30.85
2019-04-10T14:37:19.070Z,28.73
2019-04-10T14:39:49.381Z,29.95
2019-04-10T14:42:19.188Z,29.63
2019-04-10T14:44:50.975Z,28.87
2019-04-10T14:47:20.356Z,29.13
2019-04-10T14:49:52.229Z,28.67
2019-04-10T14:52:21.311Z,28.27
2019-04-10T14:54:52.199Z,29.82
2019-04-10T14:57:23.054Z,27.15
2019-04-10T14:59:52.849Z,28.47
2019-04-10T15:02:22.580Z,29.00
2019-04-10T15:04:53.032Z,27.87
2019-04-10T15:07:22.960Z,29.30
2019-04-10T15:09:52.586Z,29.20
2019-04-10T15:12:22.659Z,30.12
2019-04-10T15:14:52.430Z,29.10
2019-04-10T15:17:23.077Z,29.65
2019-04-10T15:19:53.707Z,30.20
2019-04-10T15:22:23.527Z,29.52
2019-04-10T15:24:53.887Z,30.08
2019-04-10T15:27:24.945Z,31.40
2019-04-10T15:29:54.771Z,30.20
2019-04-10T15:32:25.259Z,31.62
2019-04-10T15:34:55.781Z,31.10
2019-04-10T15:37:25.534Z,30.90
2019-04-10T15:39:55.144Z,29.42
2019-04-10T15:42:24.838Z,30.23
2019-04-10T15:44:54.529Z,31.07
2019-04-10T15:47:24.936Z,30.32
2019-04-10T15:49:54.628Z,30.05
2019-04-10T15:52:24.175Z,31.07
2019-04-10T15:54:53.989Z,29.70
2019-04-10T15:57:24.899Z,26.97
2019-04-10T15:59:54.644Z,26.60
2019-04-10T16:02:24.296Z,26.70
2019-04-10T16:04:55.159Z,25.40
2019-04-10T16:07:25.202Z,24.32
2019-04-10T16:09:57.663Z,24.45
2019-04-10T16:12:27.690Z,22.45
2019-04-10T16:14:57.331Z,23.18
2019-04-10T16:17:34.418Z,23.18
2019-04-10T16:20:19.688Z,23.67
2019-04-10T16:22:51.118Z,21.87
2019-04-10T16:25:30.121Z,22.13
2019-04-10T16:28:02.064Z,24.05
2019-04-10T16:30:32.962Z,22.73
2019-04-10T16:33:03.048Z,22.37
2019-04-10T16:35:35.254Z,22.77
2019-04-10T16:38:06.853Z,23.77
2019-04-10T16:40:38.269Z,22.25
2019-04-10T16:43:08.184Z,22.27
2019-04-10T16:45:38.527Z,21.02
2019-04-10T16:48:08.700Z,21.77
2019-04-10T16:50:38.536Z,21.45
2019-04-10T16:53:08.274Z,20.35
2019-04-10T16:55:38.116Z,21.27
2019-04-10T16:58:07.958Z,21.23
2019-04-10T17:00:37.878Z,21.82
2019-04-10T17:03:07.660Z,21.80
2019-04-10T17:05:37.711Z,22.45
2019-04-10T17:08:07.832Z,21.02
2019-04-10T17:10:38.705Z,20.27
2019-04-10T17:13:08.993Z,21.25
2019-04-10T17:15:39.870Z,21.20
2019-04-10T17:18:10.727Z,20.95
2019-04-10T17:20:40.598Z,22.48
2019-04-10T17:23:10.321Z,22.65
2019-04-10T17:25:40.158Z,24.18
2019-04-10T17:28:10.239Z,22.25
2019-04-10T17:30:40.120Z,23.42
2019-04-10T17:33:11.074Z,24.45
2019-04-10T17:35:40.756Z,21.50
2019-04-10T17:38:10.342Z,20.97
2019-04-10T17:40:46.425Z,20.92
2019-04-10T17:43:12.701Z,23.75
2019-04-10T17:45:42.897Z,22.03
2019-04-10T17:48:13.577Z,22.00
2019-04-10T17:50:43.716Z,22.62
2019-04-10T17:53:15.209Z,23.65
2019-04-10T17:55:45.227Z,23.20
2019-04-10T17:58:14.957Z,21.45
2019-04-10T18:00:47.764Z,22.70
2019-04-10T18:03:18.620Z,25.10
2019-04-10T18:05:48.822Z,24.37
2019-04-10T18:08:18.910Z,25.45
2019-04-10T18:10:52.501Z,23.07
2019-04-10T18:13:20.548Z,24.55
2019-04-10T18:15:50.603Z,25.25
2019-04-10T18:18:20.372Z,26.30
2019-04-10T18:20:51.128Z,26.40
2019-04-10T18:23:20.798Z,25.75
2019-04-10T18:25:50.527Z,27.05
2019-04-10T18:28:21.321Z,24.50
2019-04-10T18:30:52.249Z,24.05
2019-04-10T18:33:22.451Z,24.98
2019-04-10T18:35:53.232Z,25.27
2019-04-10T18:38:25.787Z,24.40
2019-04-10T18:41:02.275Z,23.65
2019-04-10T18:43:27.230Z,24.40
2019-04-10T18:46:07.882Z,23.62
2019-04-10T18:48:32.509Z,23.38
2019-04-10T18:51:02.383Z,22.85
2019-04-10T18:53:33.083Z,24.70
2019-04-10T18:56:03.064Z,24.70
2019-04-10T18:58:38.040Z,23.27
2019-04-10T19:01:14.227Z,24.45
2019-04-10T19:04:01.460Z,24.45
2019-04-10T19:06:30.588Z,24.25
2019-04-10T19:09:10.203Z,25.30
2019-04-10T19:11:35.419Z,25.85
2019-04-10T19:14:05.974Z,25.72
2019-04-10T19:16:37.347Z,27.20
2019-04-10T19:19:08.114Z,27.30
2019-04-10T19:21:39.907Z,27.55
2019-04-10T19:24:09.815Z,27.17
2019-04-10T19:26:40.002Z,25.80
2019-04-10T19:29:09.815Z,24.77
2019-04-10T19:31:41.446Z,27.13
2019-04-10T19:34:11.267Z,25.25
2019-04-10T19:36:41.678Z,25.50
2019-04-10T19:39:11.547Z,26.17
2019-04-10T19:41:41.958Z,26.12
2019-04-10T19:44:12.881Z,25.20
2019-04-10T19:46:43.934Z,25.48
2019-04-10T19:49:14.300Z,25.97
2019-04-10T19:51:44.134Z,24.77
2019-04-10T19:54:13.868Z,23.92
2019-04-10T19:56:44.624Z,24.05
2019-04-10T19:59:14.607Z,28.20
2019-04-10T20:01:44.554Z,26.48
2019-04-10T20:04:14.538Z,23.45
2019-04-10T20:06:44.766Z,23.12
2019-04-10T20:09:14.874Z,22.62
2019-04-10T20:11:49.688Z,21.77
2019-04-10T20:14:16.865Z,21.35
2019-04-10T20:16:47.849Z,20.70
2019-04-10T20:19:17.639Z,20.32
2019-04-10T20:21:48.210Z,20.75
2019-04-10T20:24:18.857Z,20.02
2019-04-10T20:26:49.660Z,19.92
2019-04-10T20:29:19.580Z,20.15
2019-04-10T20:31:50.959Z,21.00
2019-04-10T20:34:21.241Z,19.77
2019-04-10T20:36:51.189Z,19.45
2019-04-10T20:39:21.124Z,19.90
2019-04-10T20:41:55.062Z,20.85
2019-04-10T20:44:24.864Z,21.60
2019-04-10T20:46:54.853Z,22.20
2019-04-10T20:49:25.869Z,21.70
2019-04-10T20:51:55.751Z,20.55
2019-04-10T20:54:25.534Z,20.72
2019-04-10T20:56:55.074Z,21.00
2019-04-10T20:59:24.739Z,20.60
2019-04-10T21:01:55.717Z,19.45
2019-04-10T21:04:25.659Z,19.92
2019-04-10T21:06:56.505Z,21.27
2019-04-10T21:09:26.278Z,20.00
2019-04-10T21:12:02.227Z,20.57
2019-04-10T21:14:27.591Z,19.48
2019-04-10T21:16:58.373Z,20.00
2019-04-10T21:19:28.959Z,19.40
2019-04-10T21:21:59.550Z,20.17
2019-04-10T21:24:29.483Z,21.05
2019-04-10T21:26:59.145Z,20.32
2019-04-10T21:29:46.515Z,19.42
2019-04-10T21:32:34.576Z,18.42
2019-04-10T21:35:07.452Z,18.73
2019-04-10T21:37:38.184Z,19.45
2019-04-10T21:40:09.910Z,20.05
2019-04-10T21:42:39.715Z,19.73
2019-04-10T21:45:09.748Z,18.85
2019-04-10T21:47:39.342Z,19.12
2019-04-10T21:50:11.125Z,18.62
2019-04-10T21:52:41.391Z,18.90
2019-04-10T21:55:11.336Z,18.70
2019-04-10T21:57:40.849Z,18.57
2019-04-10T22:00:12.270Z,18.77
2019-04-10T22:02:42.217Z,17.75
2019-04-10T22:05:13.035Z,18.27
2019-04-10T22:07:48.110Z,18.25
2019-04-10T22:10:26.473Z,17.87
2019-04-10T22:12:57.495Z,18.07
2019-04-10T22:15:37.942Z,17.77
2019-04-10T22:18:07.820Z,18.50
2019-04-10T22:20:37.614Z,18.10
2019-04-10T22:23:07.619Z,17.27
2019-04-10T22:25:37.480Z,18.00
2019-04-10T22:28:08.322Z,18.35
2019-04-10T22:30:38.250Z,18.67
2019-04-10T22:33:08.096Z,17.90
2019-04-10T22:35:37.910Z,19.15
2019-04-10T22:38:07.673Z,18.62
2019-04-10T22:40:38.533Z,18.77
2019-04-10T22:43:08.464Z,18.42
2019-04-10T22:45:38.521Z,17.57
2019-04-10T22:48:08.498Z,17.67
2019-04-10T22:50:38.637Z,18.50
2019-04-10T22:53:08.937Z,17.80
2019-04-10T22:55:38.886Z,17.65
2019-04-10T22:58:08.891Z,17.90
2019-04-10T23:00:39.717Z,18.30
2019-04-10T23:03:09.581Z,17.37
2019-04-10T23:05:40.548Z,17.30
2019-04-10T23:08:11.517Z,17.48
2019-04-10T23:10:41.406Z,18.10
2019-04-10T23:13:11.990Z,17.85
2019-04-10T23:15:43.979Z,17.95
2019-04-10T23:18:13.289Z,17.15
2019-04-10T23:20:43.848Z,17.35
2019-04-10T23:23:13.429Z,17.92
2019-04-10T23:25:43.137Z,17.23
2019-04-10T23:28:13.540Z,17.12
2019-04-10T23:30:43.476Z,16.97
2019-04-10T23:33:13.038Z,17.37
2019-04-10T23:35:43.379Z,18.05
2019-04-10T23:38:13.237Z,17.57
2019-04-10T23:40:43.238Z,18.55
2019-04-10T23:43:15.453Z,17.10
2019-04-10T23:45:44.180Z,17.07
2019-04-10T23:48:14.837Z,17.75
2019-04-10T23:50:44.592Z,18.60
2019-04-10T23:53:14.183Z,17.23
2019-04-10T23:55:43.791Z,18.12
2019-04-10T23:58:13.922Z,17.52
